EW5657 Weather Reports


time (UTC)temp
F
wind
direction
speed
knots
gust
knots
rain 1hr
in
rain 24hr
in
rain mn
in
humidity
%
barometer
mb
20221203050208 88 180 1.7 5.2 0.00 0.00 0.00 38 1013.0
20221203045706 88 193 1.7 7.0 0.00 0.00 0.00 38 1013.1
20221203045207 87 205 1.7 7.0 0.00 0.00 0.00 38 1013.2
20221203044704 87 222 2.6 7.0 0.00 0.00 0.00 39 1013.2
20221203044205 87 194 2.6 7.0 0.00 0.00 0.00 40 1013.2
20221203043711 87 231 1.7 7.0 0.00 0.00 0.00 41 1013.2
20221203043705 87 162 2.6 7.0 0.00 0.00 0.00 41 1013.3
20221203042704 86 194 2.6 10.4 0.00 0.00 0.00 43 1013.3
20221203042202 86 166 3.5 10.4 0.00 0.00 0.00 43 1013.4
20221203041701 86 210 2.6 9.6 0.00 0.00 0.00 43 1013.5
20221203041200 87 155 1.7 8.7 0.00 0.00 0.00 42 1013.5
20221203040659 86 210 1.7 8.7 0.00 0.00 0.00 45 1013.5
20221203040158 86 195 2.6 9.6 0.00 0.00 0.00 48 1013.6
20221203035157 85 162 1.7 7.0 0.00 0.00 0.00 47 1013.7
20221203034702 85 198 2.6 10.4 0.00 0.00 0.00 49 1013.7
20221203034656 85 212 2.6 10.4 0.00 0.00 0.00 49 1013.7
20221203033655 84 202 1.7 7.0 0.00 0.00 0.00 49 1013.8
20221203033159 84 220 2.6 9.6 0.00 0.00 0.00 51 1013.8
20221203032657 85 193 2.6 9.6 0.00 0.00 0.00 47 1013.9
20221203032155 84 235 2.6 7.8 0.00 0.00 0.00 48 1014.0
20221203031654 83 197 2.6 7.8 0.00 0.00 0.00 50 1014.0
20221203031154 82 220 1.7 7.0 0.00 0.00 0.00 54 1014.1
20221203030654 81 221 1.7 4.3 0.00 0.00 0.00 57 1014.1
20221203030154 82 221 2.6 7.8 0.00 0.00 0.00 58 1014.1
20221203025653 84 200 2.6 7.8 0.00 0.00 0.00 56 1014.1
20221203025155 86 168 1.7 7.8 0.00 0.00 0.00 49 1014.2
20221203024706 84 208 0.9 4.3 0.00 0.00 0.00 45 1014.1
20221203024659 85 225 1.7 7.8 0.00 0.00 0.00 50 1014.1
20221203023653 83 212 0.9 4.3 0.00 0.00 0.00 54 1014.2
20221203023159 84 191 1.7 7.8 0.00 0.00 0.00 57 1014.2
20221203023153 83 216 1.7 7.8 0.00 0.00 0.00 55 1014.2
20221203022153 85 254 0.9 7.0 0.00 0.00 0.00 47 1014.3
20221203021658 86 219 0.9 5.2 0.00 0.00 0.00 46 1014.4
20221203021652 86 221 1.7 5.2 0.00 0.00 0.00 46 1014.4
20221203020700 87 313 3.5 10.4 0.00 0.00 0.00 40 1014.4
20221203020654 86 222 1.7 7.8 0.00 0.00 0.00 47 1014.4
20221203020152 86 255 2.6 7.8 0.00 0.00 0.00 41 1014.4
20221203015823 87 306 0.9 7.0 0.00 0.00 0.00 41 1014.5
20221203015153 87 308 2.6 10.4 0.00 0.00 0.00 41 1014.5
20221203014151 87 310 1.7 6.1 0.00 0.00 0.00 41 1014.6
20221203013655 87 278 1.7 7.8 0.00 0.00 0.00 39 1014.6
20221203013649 87 310 2.6 7.8 0.00 0.00 0.00 41 1014.5
20221203012651 86 314 1.7 7.0 0.00 0.00 0.00 41 1014.6
20221203012149 86 314 2.6 10.4 0.00 0.00 0.00 41 1014.7
20221203011655 86 334 2.6 10.4 0.00 0.00 0.00 41 1014.8
20221203011152 85 308 2.6 7.8 0.00 0.00 0.00 40 1014.8
20221203010649 85 333 1.7 5.2 0.00 0.00 0.00 43 1014.9
20221203010149 85 326 1.7 8.7 0.00 0.00 0.00 43 1014.9
20221203005650 84 296 3.5 9.6 0.00 0.00 0.00 41 1015.0
20221203005149 84 299 4.3 9.6 0.00 0.00 0.00 44 1015.0
20221203004649 84 318 4.3 10.4 0.00 0.00 0.00 43 1015.0
20221203004151 84 310 3.5 11.3 0.00 0.00 0.00 44 1015.2
20221203003650 84 275 2.6 11.3 0.00 0.00 0.00 44 1015.2
20221203003149 84 304 3.5 9.6 0.00 0.00 0.00 46 1015.3
20221203002650 84 305 2.6 9.6 0.00 0.00 0.00 44 1015.4
20221203002148 84 311 2.6 7.8 0.00 0.00 0.00 45 1015.4
20221203001647 83 318 2.6 7.8 0.00 0.00 0.00 46 1015.4
20221203001148 83 337 2.6 7.8 0.00 0.00 0.00 46 1015.5
20221203000645 83 320 2.6 7.8 0.00 0.00 0.00 47 1015.5
20221203000146 82 290 2.6 7.8 0.00 0.00 0.00 48 1015.5
20221202235647 82 341 2.6 7.8 0.00 0.00 0.00 48 1015.6
20221202235145 82 300 2.6 7.8 0.00 0.00 0.00 48 1015.6
20221202234646 82 308 2.6 7.0 0.00 0.00 0.00 49 1015.7
20221202234147 81 340 2.6 7.8 0.00 0.00 0.00 49 1015.7
20221202233642 81 324 2.6 9.6 0.00 0.00 0.00 51 1015.6
20221202233149 80 316 2.6 6.1 0.00 0.00 0.00 52 1015.7
20221202233143 80 326 2.6 9.6 0.00 0.00 0.00 51 1015.7
20221202232813 80 347 2.6 6.1 0.00 0.00 0.00 54 1015.7
20221202231643 79 302 2.6 8.7 0.00 0.00 0.00 54 1015.8
20221202231325 77 20 0.9 3.5 0.00 0.00 0.00 61 1015.8
20221202231149 78 354 0.9 3.5 0.00 0.00 0.00 59 1015.8
20221202231143 78 4 1.7 8.7 0.00 0.00 0.00 57 1015.7
20221202225644 76 38 0.9 3.5 0.00 0.00 0.00 63 1015.9
20221202225145 76 34 1.7 5.2 0.00 0.00 0.00 64 1015.9
20221202224645 75 50 1.7 5.2 0.00 0.00 0.00 64 1016.0
20221202224144 75 330 1.7 6.1 0.00 0.00 0.00 65 1016.1
20221202223643 74 330 1.7 6.1 0.00 0.00 0.00 65 1016.1
20221202223145 74 344 1.7 6.1 0.00 0.00 0.00 66 1016.1
20221202222646 73 319 1.7 5.2 0.00 0.00 0.00 67 1016.1
20221202222143 73 304 1.7 5.2 0.00 0.00 0.00 66 1016.2
20221202221644 73 338 0.9 4.3 0.00 0.00 0.00 67 1016.2
20221202221145 72 43 0.9 4.3 0.00 0.00 0.00 68 1016.2
20221202220645 71 327 0.9 4.3 0.00 0.00 0.00 70 1016.3
20221202220143 71 331 1.7 4.3 0.00 0.00 0.00 70 1016.3
20221202215645 70 327 1.7 4.3 0.00 0.00 0.00 71 1016.4
20221202215143 70 19 1.7 2.6 0.00 0.00 0.00 73 1016.4
20221202214649 69 19 1.7 4.3 0.00 0.00 0.00 74 1016.4
20221202214643 69 19 1.7 3.5 0.00 0.00 0.00 73 1016.4
20221202213641 69 49 1.7 4.3 0.00 0.00 0.00 75 1016.3
20221202213143 68 49 0.9 3.5 0.00 0.00 0.00 76 1016.2
20221202212140 67 49 1.7 5.2 0.00 0.00 0.00 78 1016.3
20221202211645 67 52 1.7 5.2 0.00 0.00 0.00 79 1016.2
20221202211143 67 47 1.7 4.3 0.00 0.00 0.00 80 1016.2
20221202210642 66 14 1.7 4.3 0.00 0.00 0.00 81 1016.2
20221202210147 65 328 0.9 4.3 0.00 0.00 0.00 83 1016.3
20221202210143 65 9 1.7 4.3 0.00 0.00 0.00 83 1016.2
20221202205142 65 327 0.9 2.6 0.00 0.00 0.00 85 1016.2
20221202204639 64 327 0.9 1.7 0.00 0.00 0.00 85 1016.1
20221202204140 64 327 0.9 3.5 0.00 0.00 0.00 87 1016.0
20221202203640 63 327 0.9 3.5 0.00 0.00 0.00 88 1016.0
20221202203140 63 325 0.9 2.6 0.00 0.00 0.00 89 1016.0
20221202202639 62 324 0.9 1.7 0.00 0.00 0.00 89 1016.0
20221202202141 62 324 0.0 2.6 0.00 0.00 0.00 90 1016.0
20221202201638 61 324 0.0 2.6 0.00 0.00 0.00 91 1016.0
20221202201140 61 324 0.0 0.9 0.00 0.00 0.00 92 1016.0
20221202200640 60 324 0.0 0.9 0.00 0.00 0.00 92 1016.0
20221202200140 60 324 0.0 3.5 0.00 0.00 0.00 92 1016.0
20221202195639 60 324 0.0 3.5 0.00 0.00 0.00 92 1016.0
20221202195140 60 311 0.0 0.9 0.00 0.00 0.00 93 1015.9
20221202194639 59 311 0.0 0.9 0.00 0.00 0.00 93 1016.0
20221202194140 59 311 0.0 0.0 0.00 0.00 0.00 93 1015.9
20221202193642 58 311 0.0 0.0 0.00 0.00 0.00 93 1015.9
20221202193637 58 311 0.0 0.0 0.00 0.00 0.00 93 1015.9
20221202192637 58 311 0.0 0.0 0.00 0.00 0.00 93 1015.9
20221202192137 58 311 0.0 0.0 0.00 0.00 0.00 92 1015.9
20221202191642 57 311 0.0 0.0 0.00 0.00 0.00 92 1015.8
20221202191637 57 311 0.0 0.0 0.00 0.00 0.00 92 1015.8
20221202190639 57 311 0.0 0.0 0.00 0.00 0.00 92 1015.8
20221202190145 57 311 0.0 0.0 0.00 0.00 0.00 92 1015.7
20221202190138 57 311 0.0 0.0 0.00 0.00 0.00 92 1015.7
20221202185140 57 311 0.0 0.0 0.00 0.00 0.00 92 1015.7
20221202185134 57 311 0.0 0.0 0.00 0.00 0.00 91 1015.7
20221202184134 57 311 0.0 0.0 0.00 0.00 0.00 91 1015.6
20221202183641 57 311 0.0 0.0 0.00 0.00 0.00 91 1015.5
20221202183634 57 311 0.0 0.0 0.00 0.00 0.00 92 1015.6
20221202183135 57 311 0.0 0.0 0.00 0.00 0.00 92 1015.5
20221202182140 58 311 0.0 0.0 0.00 0.00 0.00 91 1015.5
20221202182134 58 311 0.0 0.0 0.00 0.00 0.00 91 1015.5
20221202181136 58 311 0.0 0.0 0.00 0.00 0.00 91 1015.5
20221202180634 58 311 0.0 0.0 0.00 0.00 0.00 91 1015.5
20221202180140 58 311 0.0 0.0 0.00 0.00 0.00 91 1015.5
20221202180134 58 311 0.0 0.0 0.00 0.00 0.00 91 1015.5
20221202175134 58 311 0.0 0.0 0.00 0.00 0.00 91 1015.5
20221202174634 58 311 0.0 0.0 0.00 0.00 0.00 91 1015.5
20221202174133 58 311 0.0 0.0 0.00 0.00 0.00 91 1015.4
20221202173634 58 311 0.0 0.0 0.00 0.00 0.00 91 1015.4
20221202173134 59 311 0.0 0.0 0.00 0.00 0.00 91 1015.4
20221202172633 59 311 0.0 0.0 0.00 0.00 0.00 91 1015.4
20221202172132 59 311 0.0 0.9 0.00 0.00 0.00 91 1015.4
20221202171632 59 311 0.0 0.9 0.00 0.00 0.00 91 1015.4
20221202171132 59 311 0.0 0.0 0.00 0.00 0.00 91 1015.3
20221202170630 59 311 0.0 0.9 0.00 0.00 0.00 91 1015.4
20221202170131 59 311 0.0 0.9 0.00 0.00 0.00 91 1015.4
20221202165631 59 311 0.0 0.9 0.00 0.00 0.00 91 1015.4
20221202165131 59 311 0.0 0.9 0.00 0.00 0.00 91 1015.5
20221202164630 59 311 0.0 0.9 0.00 0.00 0.00 91 1015.5
20221202164130 59 311 0.0 0.9 0.00 0.00 0.00 91 1015.5
20221202163631 59 311 0.0 0.9 0.00 0.00 0.00 91 1015.6
20221202163131 59 311 0.0 0.9 0.00 0.00 0.00 91 1015.6
20221202162642 60 311 0.0 0.9 0.00 0.00 0.00 91 1015.6
20221202162140 60 311 0.0 1.7 0.00 0.00 0.00 91 1015.6
20221202162131 60 311 0.0 1.7 0.00 0.00 0.00 91 1015.6
20221202161633 60 311 0.0 1.7 0.00 0.00 0.00 91 1015.6
20221202160628 60 311 0.0 1.7 0.00 0.00 0.00 91 1015.7
20221202160126 60 311 0.0 0.9 0.00 0.00 0.00 91 1015.7
20221202155628 60 311 0.0 0.9 0.00 0.00 0.00 91 1015.6
20221202155128 60 311 0.0 0.9 0.00 0.00 0.00 91 1015.7
20221202154626 60 311 0.0 0.9 0.00 0.00 0.00 91 1015.7
20221202154127 60 311 0.0 0.9 0.00 0.00 0.00 91 1015.7
20221202153625 60 311 0.0 2.6 0.00 0.00 0.00 91 1015.7
20221202153126 60 311 0.0 2.6 0.00 0.00 0.00 91 1015.8
20221202152632 61 311 0.0 1.7 0.00 0.00 0.00 91 1015.8
20221202152626 61 311 0.0 1.7 0.00 0.00 0.00 91 1015.8
20221202151625 61 311 0.0 0.9 0.00 0.00 0.00 91 1015.8
20221202151128 61 311 0.0 1.7 0.00 0.00 0.00 91 1015.9
20221202150628 61 311 0.9 2.6 0.00 0.00 0.00 91 1015.9
20221202150126 61 311 1.7 4.3 0.00 0.00 0.00 91 1016.0
20221202145626 61 311 1.7 4.3 0.00 0.00 0.00 91 1016.0
20221202145126 61 309 1.7 4.3 0.00 0.00 0.00 91 1016.0
20221202144624 61 309 1.7 4.3 0.00 0.00 0.00 91 1016.0
20221202144125 61 309 1.7 3.5 0.00 0.00 0.00 91 1016.1
20221202143624 61 309 1.7 3.5 0.00 0.00 0.00 91 1016.1
20221202143124 61 310 1.7 6.1 0.00 0.00 0.00 91 1016.2
20221202142624 62 310 2.6 6.1 0.00 0.00 0.00 91 1016.2
20221202142125 62 312 1.7 4.3 0.00 0.00 0.00 90 1016.3
20221202141622 62 312 1.7 3.5 0.00 0.00 0.00 90 1016.3
20221202141121 62 312 0.9 6.1 0.00 0.00 0.00 91 1016.4
20221202140625 62 312 0.9 6.1 0.00 0.00 0.00 91 1016.4
20221202140121 62 305 0.9 5.2 0.00 0.00 0.00 91 1016.4
20221202135629 62 305 0.9 4.3 0.00 0.00 0.00 90 1016.5
20221202135623 62 305 1.7 5.2 0.00 0.00 0.00 90 1016.4
20221202134622 62 304 0.9 4.3 0.00 0.00 0.00 90 1016.5
20221202134123 62 299 0.9 5.2 0.00 0.00 0.00 90 1016.5
20221202133622 62 329 0.9 5.2 0.00 0.00 0.00 90 1016.5
20221202133129 62 335 0.9 5.2 0.00 0.00 0.00 90 1016.5
20221202133122 62 332 0.9 5.2 0.00 0.00 0.00 90 1016.5
20221202132123 63 310 0.9 6.1 0.00 0.00 0.00 90 1016.6
20221202131623 63 310 0.9 6.1 0.00 0.00 0.00 90 1016.6
20221202131120 63 303 0.9 5.2 0.00 0.00 0.00 90 1016.6
20221202130622 63 288 0.9 5.2 0.00 0.00 0.00 90 1016.6
20221202130120 63 262 0.9 3.5 0.00 0.00 0.00 89 1016.6
20221202125620 63 261 0.9 3.5 0.00 0.00 0.00 89 1016.5
20221202125118 63 261 0.9 4.3 0.00 0.00 0.00 89 1016.5
20221202124618 63 260 0.9 4.3 0.00 0.00 0.00 89 1016.6
20221202124118 63 255 0.9 4.3 0.00 0.00 0.00 89 1016.6
20221202123623 63 256 0.9 3.5 0.00 0.00 0.00 89 1016.6
20221202123618 63 256 0.9 2.6 0.00 0.00 0.00 89 1016.6
20221202123245 64 255 0.0 1.7 0.00 0.00 0.00 88 1016.6
20221202122616 63 256 0.0 3.5 0.00 0.00 0.00 88 1016.6
20221202121617 64 256 0.0 2.6 0.00 0.00 0.00 88 1016.6
20221202121118 64 256 0.0 2.6 0.00 0.00 0.00 88 1016.6
20221202120618 64 255 0.0 2.6 0.00 0.00 0.00 88 1016.6
20221202120119 64 255 0.0 1.7 0.00 0.00 0.00 87 1016.5
20221202115618 64 255 0.0 2.6 0.00 0.00 0.00 87 1016.6
20221202115123 65 256 0.9 4.3 0.00 0.00 0.00 87 1016.7
20221202115117 64 255 0.0 2.6 0.00 0.00 0.00 87 1016.7
20221202114117 65 256 0.9 4.3 0.00 0.00 0.00 87 1016.7
20221202113618 65 264 0.9 4.3 0.00 0.00 0.00 87 1016.7
20221202113123 65 212 0.9 4.3 0.00 0.00 0.00 87 1016.7
20221202113117 65 241 0.9 3.5 0.00 0.00 0.00 87 1016.7
20221202112116 65 212 0.0 4.3 0.00 0.00 0.00 86 1016.6
20221202111616 65 212 0.0 0.9 0.00 0.00 0.00 86 1016.6
20221202111116 65 212 0.0 2.6 0.00 0.00 0.00 85 1016.6
20221202110618 66 212 0.0 2.6 0.00 0.00 0.00 85 1016.6
20221202110116 66 210 0.0 2.6 0.00 0.00 0.00 85 1016.5
20221202105620 66 210 0.0 2.6 0.00 0.00 0.00 85 1016.4
20221202105117 66 210 0.0 3.5 0.00 0.00 0.00 84 1016.5
20221202104622 66 210 0.0 0.9 0.00 0.00 0.00 83 1016.4
20221202104616 66 210 0.0 3.5 0.00 0.00 0.00 84 1016.4
20221202103118 66 209 0.0 1.7 0.00 0.00 0.00 82 1016.2
20221202102613 66 209 0.0 1.7 0.00 0.00 0.00 81 1016.2
20221202102115 66 209 0.0 1.7 0.00 0.00 0.00 81 1016.1
20221202101613 67 209 0.0 1.7 0.00 0.00 0.00 80 1016.1
20221202101114 67 209 0.0 0.0 0.00 0.00 0.00 79 1016.1
20221202100613 67 209 0.0 0.9 0.00 0.00 0.00 79 1016.0
20221202100111 67 209 0.0 1.7 0.00 0.00 0.00 78 1016.0
20221202095617 67 209 0.0 1.7 0.00 0.00 0.00 78 1016.0
20221202095613 67 209 0.0 1.7 0.00 0.00 0.00 78 1015.9
20221202095237 67 209 0.9 3.5 0.00 0.00 0.00 77 1016.0
20221202094736 67 209 0.9 3.5 0.00 0.00 0.00 77 1015.9
20221202093611 67 210 0.9 2.6 0.00 0.00 0.00 77 1016.0
20221202093109 68 209 0.9 3.5 0.00 0.00 0.00 76 1016.0
20221202091608 68 169 1.7 8.7 0.00 0.00 0.00 75 1015.9
20221202091108 68 204 1.7 9.6 0.00 0.00 0.00 75 1015.8
20221202090615 69 199 1.7 7.0 0.00 0.00 0.00 74 1015.7
20221202090609 68 159 1.7 9.6 0.00 0.00 0.00 74 1015.7
20221202085610 69 202 1.7 7.0 0.00 0.00 0.00 74 1015.7
20221202085110 69 193 1.7 7.0 0.00 0.00 0.00 73 1015.7
20221202084618 70 209 1.7 4.3 0.00 0.00 0.00 72 1015.7
20221202084610 69 240 1.7 5.2 0.00 0.00 0.00 73 1015.7
20221202083611 70 214 1.7 6.1 0.00 0.00 0.00 72 1015.7
20221202083109 70 214 1.7 8.7 0.00 0.00 0.00 71 1015.6
20221202082610 71 185 1.7 8.7 0.00 0.00 0.00 71 1015.6
20221202082107 71 171 1.7 7.0 0.00 0.00 0.00 70 1015.5
20221202081607 71 210 1.7 7.0 0.00 0.00 0.00 69 1015.5
20221202081107 71 175 1.7 7.0 0.00 0.00 0.00 69 1015.5
20221202080608 72 202 1.7 7.0 0.00 0.00 0.00 68 1015.4
20221202080107 72 206 1.7 7.0 0.00 0.00 0.00 69 1015.3
20221202075612 72 203 1.7 5.2 0.00 0.00 0.00 71 1015.3
20221202075606 72 202 0.9 4.3 0.00 0.00 0.00 70 1015.3
20221202074607 71 203 1.7 5.2 0.00 0.00 0.00 72 1015.3
20221202074106 71 217 1.7 5.2 0.00 0.00 0.00 74 1015.2
20221202073609 71 204 1.7 8.7 0.00 0.00 0.00 74 1015.2
20221202073106 71 214 1.7 8.7 0.00 0.00 0.00 73 1015.3
20221202072617 71 197 1.7 8.7 0.00 0.00 0.00 74 1015.2
20221202072611 71 197 1.7 7.0 0.00 0.00 0.00 73 1015.2
20221202071604 70 206 2.6 8.7 0.00 0.00 0.00 74 1015.3
20221202071105 70 195 2.6 8.7 0.00 0.00 0.00 72 1015.3
20221202070604 71 185 2.6 8.7 0.00 0.00 0.00 72 1015.3
20221202070106 71 233 2.6 8.7 0.00 0.00 0.00 72 1015.3
20221202065606 70 197 3.5 9.6 0.00 0.00 0.00 72 1015.3
20221202065106 71 218 2.6 9.6 0.00 0.00 0.00 70 1015.3
20221202064607 71 219 2.6 9.6 0.00 0.00 0.00 69 1015.3
20221202064105 71 201 2.6 9.6 0.00 0.00 0.00 69 1015.3
20221202063605 72 136 2.6 8.7 0.00 0.00 0.00 68 1015.3
20221202063106 72 226 2.6 8.7 0.00 0.00 0.00 68 1015.3
20221202062605 72 195 2.6 8.7 0.00 0.00 0.00 67 1015.3
20221202062105 72 198 2.6 8.7 0.00 0.00 0.00 67 1015.3
20221202061603 72 159 1.7 7.8 0.00 0.00 0.00 66 1015.3
20221202061102 72 158 1.7 7.8 0.00 0.00 0.00 69 1015.3
20221202060603 72 207 2.6 8.7 0.00 0.00 0.00 69 1015.3
20221202060109 71 197 3.5 10.4 0.00 0.00 0.00 68 1015.4
20221202060102 71 185 2.6 8.7 0.00 0.00 0.00 70 1015.3
20221202055602 71 195 3.5 10.4 0.00 0.00 0.00 69 1015.4
20221202054604 71 153 2.6 7.8 0.00 0.00 0.00 68 1015.5
20221202054103 71 202 2.6 9.6 0.00 0.00 0.00 68 1015.4
20221202053608 71 213 2.6 7.8 0.00 0.00 0.00 68 1015.4
20221202053604 71 201 2.6 9.6 0.00 0.00 0.00 67 1015.4
20221202052602 71 175 2.6 7.8 0.00 0.00 0.00 68 1015.6
20221202052100 71 197 2.6 7.8 0.00 0.00 0.00 68 1015.5
20221202051600 71 241 2.6 7.8 0.00 0.00 0.00 69 1015.6